Time;durP1;ratioP1;P1;durP2;ratioP2;P2;SDS_P1;SDS_P2;PMS_P1;PMS_P2;Temp;Humidity;BMP_temperature;BMP_pressure;BME280_temperature;BME280_humidity;BME280_pressure;Samples;Min_cycle;Max_cycle;Signal;HPM_P1;HPM_P2
2021/08/19 00:01:47;;;;;;;2.37;2.17;;;17.00;77.90;;;16.21;81.31;97914.25;5034421;28;20469;-80
2021/08/19 00:04:14;;;;;;;1.83;1.73;;;17.10;77.80;;;16.17;81.97;97915.03;5025965;28;20451;-80
2021/08/19 00:06:43;;;;;;;1.80;1.70;;;17.10;78.30;;;16.19;81.70;97915.59;5032787;28;20513;-79
2021/08/19 00:09:10;;;;;;;1.97;1.87;;;17.10;78.10;;;16.23;81.21;97917.56;5019740;28;20448;-80
2021/08/19 00:11:37;;;;;;;2.03;1.93;;;17.10;78.10;;;16.23;81.82;97916.72;5029828;28;20455;-80
2021/08/19 00:14:04;;;;;;;2.90;1.90;;;17.10;78.10;;;16.20;81.69;97920.78;5025424;28;20487;-80
2021/08/19 00:16:33;;;;;;;1.70;1.60;;;17.10;78.10;;;16.17;81.63;97910.38;5029927;28;20473;-80
2021/08/19 00:19:02;;;;;;;2.20;1.70;;;17.10;78.50;;;16.19;81.88;97916.41;5020528;28;20453;-80
2021/08/19 00:21:30;;;;;;;1.90;1.57;;;17.10;78.70;;;16.25;81.56;97911.84;5027272;28;20447;-80
2021/08/19 00:23:58;;;;;;;1.87;1.77;;;17.10;78.60;;;15.83;82.11;97870.44;5023171;28;20499;-79
2021/08/19 00:26:25;;;;;;;2.00;1.90;;;17.00;78.80;;;16.13;82.65;97901.09;5026684;28;20452;-80
2021/08/19 00:28:52;;;;;;;3.37;1.90;;;17.10;79.20;;;16.21;82.34;97905.25;5022032;28;20451;-80
2021/08/19 00:31:22;;;;;;;2.40;1.80;;;17.10;79.40;;;16.26;81.68;97914.31;5020466;28;20463;-79
2021/08/19 00:33:52;;;;;;;2.50;2.27;;;17.10;79.10;;;16.25;81.91;97898.22;5030879;28;20451;-80
2021/08/19 00:36:20;;;;;;;2.20;2.10;;;17.10;79.20;;;16.24;82.00;97912.91;5029930;28;20454;-79
2021/08/19 00:38:47;;;;;;;1.97;1.77;;;17.10;79.30;;;16.14;82.69;97903.53;5028340;28;20495;-79
2021/08/19 00:41:15;;;;;;;1.90;1.80;;;17.10;79.80;;;16.13;82.75;97896.44;5028965;28;20542;-79
2021/08/19 00:43:42;;;;;;;2.03;1.93;;;17.10;79.90;;;16.06;83.35;97890.38;5030974;28;20482;-79
2021/08/19 00:46:29;;;;;;;3.60;2.53;;;17.00;80.30;;;16.21;82.55;97897.88;5027770;28;20455;-80
2021/08/19 00:48:59;;;;;;;2.80;1.87;;;17.10;80.50;;;16.16;82.80;97895.13;5026459;28;20452;-80
2021/08/19 00:51:37;;;;;;;1.90;1.80;;;17.10;80.40;;;16.10;83.16;97893.41;5022101;28;20447;-80
2021/08/19 00:54:07;;;;;;;1.83;1.73;;;17.00;80.60;;;16.15;83.26;97893.47;5019729;28;20460;-80
2021/08/19 00:56:37;;;;;;;2.50;1.90;;;17.00;80.80;;;16.13;82.76;97882.81;5024360;28;20443;-80
2021/08/19 00:59:06;;;;;;;2.37;2.03;;;17.00;80.80;;;16.06;83.06;97873.19;5022262;28;20454;-80
2021/08/19 01:01:35;;;;;;;1.90;1.80;;;17.00;80.90;;;16.04;83.12;97881.63;5016290;28;20455;-80
2021/08/19 01:04:05;;;;;;;2.57;2.20;;;17.00;80.90;;;16.02;83.58;97872.06;5020014;28;20472;-80
2021/08/19 01:06:32;;;;;;;2.30;2.20;;;17.00;81.30;;;15.96;83.91;97876.63;5023612;28;20523;-80
2021/08/19 01:08:59;;;;;;;2.40;2.20;;;16.90;81.60;;;15.97;83.99;97889.16;5020752;28;20494;-81
2021/08/19 01:11:26;;;;;;;2.97;2.60;;;16.90;81.90;;;15.91;84.27;97876.56;5030676;28;20444;-80
2021/08/19 01:13:53;;;;;;;2.87;2.63;;;16.90;81.90;;;15.94;84.27;97876.88;5032881;28;20459;-80
2021/08/19 01:16:20;;;;;;;2.90;2.70;;;16.90;82.20;;;15.84;85.04;97882.97;5045950;28;20466;-80
2021/08/19 01:18:48;;;;;;;2.00;1.90;;;16.80;82.40;;;15.85;84.46;97872.91;5032632;28;20478;-79
2021/08/19 01:21:18;;;;;;;2.40;2.30;;;16.80;82.40;;;15.80;84.68;97881.03;5033166;28;20534;-80
2021/08/19 01:23:46;;;;;;;2.80;2.60;;;16.80;82.70;;;15.79;84.76;97874.75;5034125;28;20521;-80
2021/08/19 01:26:17;;;;;;;2.23;2.07;;;16.80;83.10;;;15.92;84.61;97884.50;5036353;28;20444;-80
2021/08/19 01:28:47;;;;;;;5.53;2.50;;;16.80;82.90;;;15.88;84.64;97882.50;5025045;28;20563;-80
2021/08/19 01:31:18;;;;;;;2.70;2.40;;;16.80;83.00;;;15.78;85.08;97878.56;5026973;28;20474;-80
2021/08/19 01:33:51;;;;;;;2.80;2.60;;;16.70;83.30;;;15.86;85.05;97878.13;5027698;28;20700;-80
2021/08/19 01:36:18;;;;;;;2.90;2.70;;;16.70;83.40;;;15.82;85.28;97868.78;5030043;28;20503;-80
2021/08/19 01:38:46;;;;;;;3.77;2.73;;;16.70;83.70;;;15.74;85.59;97869.25;5027970;28;20483;-80
2021/08/19 01:41:13;;;;;;;2.20;2.10;;;16.70;83.80;;;15.85;84.99;97876.47;5042826;28;20448;-80
2021/08/19 01:43:44;;;;;;;2.27;2.17;;;16.70;84.20;;;15.82;85.46;97876.16;5030795;28;20482;-79
2021/08/19 01:46:14;;;;;;;2.40;2.20;;;16.70;84.00;;;15.90;85.10;97872.19;5024760;28;21308;-80
2021/08/19 01:48:43;;;;;;;2.70;2.50;;;16.70;84.10;;;15.86;85.21;97869.13;5019045;28;20543;-80
2021/08/19 01:51:11;;;;;;;2.60;2.40;;;16.70;84.00;;;15.92;84.95;97879.06;5017718;28;20450;-80
2021/08/19 01:53:39;;;;;;;3.00;2.80;;;16.70;84.30;;;15.83;85.26;97870.44;5020169;28;20463;-81
2021/08/19 01:56:07;;;;;;;3.00;2.80;;;16.80;84.20;;;15.89;85.20;97879.53;5017541;28;20490;-79
2021/08/19 01:58:34;;;;;;;3.23;2.63;;;16.80;84.30;;;15.98;84.56;97877.19;5017475;28;20971;-80
2021/08/19 02:01:01;;;;;;;2.27;2.17;;;16.80;83.70;;;15.91;84.77;97877.38;5019556;28;20446;-80
2021/08/19 02:03:31;;;;;;;3.90;2.63;;;16.80;83.90;;;15.86;85.23;97878.13;5020340;28;20527;-81
2021/08/19 02:05:58;;;;;;;2.87;2.67;;;16.80;84.30;;;15.91;84.82;97868.41;5025719;28;20515;-80
2021/08/19 02:08:25;;;;;;;2.43;2.23;;;16.80;84.30;;;15.89;84.90;97873.25;5023909;28;20513;-80
2021/08/19 02:10:53;;;;;;;2.67;2.47;;;16.80;84.30;;;15.83;85.32;97873.16;5017038;28;20542;-80
2021/08/19 02:13:20;;;;;;;2.40;2.30;;;16.80;84.40;;;15.93;85.06;97872.53;5025017;28;20966;-80
2021/08/19 02:15:47;;;;;;;2.47;2.30;;;16.80;84.40;;;15.89;84.93;97873.25;5022616;28;20467;-80
2021/08/19 02:18:14;;;;;;;3.20;2.33;;;16.80;84.30;;;15.78;85.37;97880.47;5017487;28;20452;-80
2021/08/19 02:20:43;;;;;;;2.80;2.60;;;16.70;84.60;;;15.65;85.61;97854.41;5026577;28;20486;-80
2021/08/19 02:23:10;;;;;;;2.90;2.70;;;16.70;85.00;;;15.58;85.99;97852.72;5021837;28;20471;-80
2021/08/19 02:25:37;;;;;;;2.70;2.50;;;16.60;85.10;;;15.78;85.53;97870.38;5021310;28;20509;-80
2021/08/19 02:28:05;;;;;;;4.40;2.93;;;16.70;85.40;;;15.85;85.65;97871.03;5024521;28;20459;-80
2021/08/19 02:30:32;;;;;;;2.47;2.27;;;16.70;85.10;;;15.85;85.68;97872.91;5020961;28;20547;-81
2021/08/19 02:33:01;;;;;;;2.57;2.37;;;16.70;85.10;;;15.75;85.68;97872.78;5018783;28;20487;-80
2021/08/19 02:35:29;;;;;;;3.20;3.00;;;16.70;85.30;;;15.71;85.64;97867.03;5015107;28;20448;-80
2021/08/19 02:38:00;;;;;;;2.50;2.30;;;16.70;85.30;;;15.72;85.97;97869.50;5018935;28;20534;-80
2021/08/19 02:40:29;;;;;;;3.17;2.80;;;16.70;85.60;;;15.61;86.27;97861.44;5009453;28;20524;-80
2021/08/19 02:42:57;;;;;;;2.77;2.57;;;16.60;85.70;;;15.74;85.86;97866.53;5017485;28;20586;-80
2021/08/19 02:45:25;;;;;;;2.17;2.07;;;16.70;85.70;;;15.61;86.80;97873.16;5016617;28;20519;-80
2021/08/19 02:47:53;;;;;;;2.73;2.53;;;16.60;85.90;;;15.62;86.53;97865.81;5021491;28;20450;-80
2021/08/19 02:50:20;;;;;;;2.57;2.37;;;16.60;86.30;;;15.65;86.90;97878.94;5018667;28;20447;-80
2021/08/19 02:52:48;;;;;;;2.80;2.60;;;16.50;86.60;;;15.71;86.25;97867.03;5023063;28;20443;-80
2021/08/19 02:55:16;;;;;;;2.80;2.60;;;16.60;86.40;;;15.66;86.51;97866.97;5025575;28;20516;-81
2021/08/19 02:57:44;;;;;;;2.77;2.57;;;16.60;86.40;;;15.64;86.54;97866.38;5020750;28;20465;-80
2021/08/19 03:00:13;;;;;;;3.00;2.80;;;16.50;86.70;;;15.62;86.43;97857.66;5013515;28;20459;-81
2021/08/19 03:02:41;;;;;;;4.00;2.70;;;16.50;86.70;;;15.67;86.73;97869.44;5022068;28;20454;-81
2021/08/19 03:05:09;;;;;;;2.90;2.57;;;16.50;86.60;;;15.67;86.61;97865.88;5018900;28;20459;-80
2021/08/19 03:07:37;;;;;;;2.20;2.10;;;16.60;86.90;;;15.65;86.65;97840.81;5024445;28;20448;-80
2021/08/19 03:10:05;;;;;;;2.73;2.53;;;16.60;86.80;;;15.77;85.97;97866.00;5028784;28;20456;-80
2021/08/19 03:12:35;;;;;;;2.40;2.20;;;16.60;86.60;;;15.82;86.02;97860.63;5036436;28;20455;-80
2021/08/19 03:15:02;;;;;;;2.90;2.60;;;16.70;86.30;;;15.73;86.26;97859.44;5035604;28;20490;-80
2021/08/19 03:17:29;;;;;;;2.17;2.07;;;16.60;86.50;;;15.69;86.29;97863.72;5026667;28;20858;-80
2021/08/19 03:19:56;;;;;;;2.83;2.63;;;16.60;86.60;;;15.57;86.85;97850.22;5031275;28;22266;-80
2021/08/19 03:22:23;;;;;;;2.53;2.33;;;16.60;86.80;;;15.53;86.95;97844.47;5033849;28;20591;-79
2021/08/19 03:24:50;;;;;;;2.90;2.60;;;16.50;87.30;;;15.64;87.18;97863.66;5034025;28;20474;-79
2021/08/19 03:27:19;;;;;;;2.63;2.43;;;16.50;87.30;;;15.63;86.63;97859.28;5028188;28;20462;-79
2021/08/19 03:29:48;;;;;;;2.90;2.70;;;16.50;87.20;;;15.61;86.75;97851.38;5031123;28;20476;-79
2021/08/19 03:32:15;;;;;;;4.63;2.90;;;16.50;87.20;;;15.51;87.11;97857.50;5030837;28;20466;-80
2021/08/19 03:34:42;;;;;;;2.80;2.60;;;16.50;87.60;;;15.56;87.03;97852.16;5033209;28;20533;-79
2021/08/19 03:37:09;;;;;;;2.70;2.47;;;16.50;87.60;;;15.65;86.80;97860.69;5021352;28;20471;-79
2021/08/19 03:39:36;;;;;;;3.13;2.83;;;16.50;87.20;;;15.58;87.18;97852.72;5035054;28;20474;-79
2021/08/19 03:42:04;;;;;;;3.10;2.80;;;16.50;87.50;;;15.52;87.02;97842.81;5024981;28;20518;-80
2021/08/19 03:44:31;;;;;;;3.00;2.80;;;16.50;87.70;;;15.56;87.34;97854.88;5032864;28;20470;-80
2021/08/19 03:47:00;;;;;;;6.47;2.70;;;16.40;88.10;;;15.67;86.99;97857.72;5026164;28;20447;-80
2021/08/19 03:49:29;;;;;;;3.53;3.23;;;16.50;87.80;;;15.65;86.49;97855.25;5030707;28;20458;-80
2021/08/19 03:51:56;;;;;;;2.80;2.60;;;16.50;87.60;;;15.65;87.04;97862.59;5037032;28;20443;-81
2021/08/19 03:54:23;;;;;;;3.30;3.00;;;16.50;87.50;;;15.64;87.06;97869.09;5031030;28;20518;-80
2021/08/19 03:56:52;;;;;;;3.73;3.30;;;16.50;87.70;;;15.53;87.18;97849.91;5030422;28;21021;-80
2021/08/19 03:59:19;;;;;;;4.43;3.30;;;16.50;88.00;;;15.53;87.33;97868.97;5023701;28;20570;-81
2021/08/19 04:01:47;;;;;;;5.53;3.00;;;16.40;88.00;;;15.53;87.55;97866.25;5042313;28;20475;-79
2021/08/19 04:04:20;;;;;;;3.90;3.60;;;16.50;88.30;;;15.58;87.14;97866.34;5024164;28;20459;-80
2021/08/19 04:06:47;;;;;;;3.73;3.43;;;16.50;87.90;;;15.56;87.24;97865.75;5022543;28;20817;-80
2021/08/19 04:09:14;;;;;;;4.33;3.83;;;16.50;87.80;;;15.44;87.65;97862.31;5025897;28;20578;-80
2021/08/19 04:11:41;;;;;;;4.30;4.00;;;16.40;88.10;;;15.39;87.72;97865.78;5029501;28;20462;-80
2021/08/19 04:14:08;;;;;;;3.80;3.50;;;16.40;88.40;;;15.39;88.06;97870.41;5027629;28;20491;-81
2021/08/19 04:16:35;;;;;;;4.33;4.03;;;16.40;88.80;;;15.33;88.26;97871.41;5043542;28;20450;-80
2021/08/19 04:19:03;;;;;;;4.60;4.20;;;16.30;89.20;;;15.25;88.61;97853.59;5037983;28;20439;-80
2021/08/19 04:21:31;;;;;;;4.97;4.57;;;16.30;89.30;;;15.40;88.26;97877.53;5044611;28;20453;-79
2021/08/19 04:23:58;;;;;;;4.20;3.90;;;16.30;89.50;;;15.40;88.16;97866.63;5029343;28;20455;-80
2021/08/19 04:26:26;;;;;;;5.03;4.63;;;16.30;89.30;;;15.36;88.11;97865.47;5024600;28;20544;-79
2021/08/19 04:28:53;;;;;;;4.70;4.30;;;16.40;89.10;;;15.32;88.63;97869.75;5024782;28;20513;-79
2021/08/19 04:31:20;;;;;;;5.07;4.67;;;16.30;89.40;;;15.38;88.48;97875.03;5019563;28;21204;-80
2021/08/19 04:33:47;;;;;;;5.00;4.60;;;16.30;89.60;;;15.37;88.68;97875.28;5029686;28;20546;-80
2021/08/19 04:36:15;;;;;;;4.73;4.43;;;16.30;89.80;;;15.48;88.20;97884.44;5018770;28;20431;-79
2021/08/19 04:38:43;;;;;;;4.40;4.10;;;16.40;89.60;;;15.50;87.63;97880.34;5019350;28;20448;-80
2021/08/19 04:41:12;;;;;;;4.80;4.47;;;16.40;89.30;;;15.53;87.62;97871.69;5019427;28;20514;-80
2021/08/19 04:43:40;;;;;;;5.00;4.60;;;16.40;89.30;;;15.50;87.77;97874.91;5027107;28;20472;-80
2021/08/19 04:46:09;;;;;;;5.23;4.73;;;16.40;89.30;;;15.49;87.38;97865.09;5025465;28;20446;-79
2021/08/19 04:48:36;;;;;;;4.70;4.30;;;16.40;89.00;;;15.48;87.33;97870.81;5021370;28;20951;-80
2021/08/19 04:51:03;;;;;;;4.70;4.40;;;16.50;88.60;;;15.54;87.73;97878.81;5031605;28;20470;-79
2021/08/19 04:53:31;;;;;;;5.57;5.17;;;16.50;88.80;;;15.53;87.55;97890.75;5036260;28;20948;-79
2021/08/19 04:56:00;;;;;;;5.50;5.00;;;16.40;89.00;;;15.57;87.85;97883.75;5024791;28;20496;-80
2021/08/19 04:58:28;;;;;;;5.77;5.20;;;16.40;88.90;;;15.57;87.70;97878.28;5019411;28;20478;-80
2021/08/19 05:00:55;;;;;;;6.60;6.00;;;16.50;89.00;;;15.61;87.42;97889.50;5021480;28;20947;-80
2021/08/19 05:03:23;;;;;;;6.30;5.70;;;16.50;88.80;;;15.62;87.29;97876.72;5022097;28;20471;-80
2021/08/19 05:05:50;;;;;;;6.60;6.00;;;16.50;88.90;;;15.64;87.28;97882.72;5034001;28;20550;-80
2021/08/19 05:08:18;;;;;;;6.67;6.07;;;16.50;88.40;;;15.49;86.88;97854.22;5024331;28;20487;-80
2021/08/19 05:10:45;;;;;;;7.43;6.03;;;16.60;88.40;;;15.75;86.86;97878.22;5023462;28;20459;-80
2021/08/19 05:13:13;;;;;;;6.77;6.17;;;16.60;88.10;;;15.72;86.77;97874.13;5024017;28;20961;-80
2021/08/19 05:15:41;;;;;;;6.03;5.63;;;16.60;87.90;;;15.73;86.40;97870.31;5023573;28;20483;-80
2021/08/19 05:18:08;;;;;;;6.80;6.30;;;16.60;87.70;;;15.75;86.63;97879.06;5032896;28;20443;-80
2021/08/19 05:20:35;;;;;;;6.87;6.27;;;16.60;87.80;;;15.71;86.16;97861.59;5032416;28;20472;-80
2021/08/19 05:23:03;;;;;;;6.40;5.90;;;16.70;87.20;;;15.81;86.28;97883.50;5030794;28;20474;-81
2021/08/19 05:25:30;;;;;;;6.90;6.07;;;16.70;87.60;;;15.88;86.06;97882.50;5016420;28;20507;-80
2021/08/19 05:27:57;;;;;;;6.30;5.80;;;16.70;87.40;;;15.97;85.48;97881.00;5023656;28;20534;-80
2021/08/19 05:30:25;;;;;;;7.87;7.17;;;16.80;86.70;;;16.00;84.89;97886.75;5023676;28;20510;-80
2021/08/19 05:32:52;;;;;;;7.50;6.70;;;16.80;86.30;;;16.07;84.56;97885.72;5026444;28;20451;-80
2021/08/19 05:35:19;;;;;;;7.87;6.90;;;16.90;86.00;;;16.06;84.29;97882.19;5018759;28;21204;-80
2021/08/19 05:37:47;;;;;;;7.30;6.60;;;17.00;85.70;;;16.13;84.69;97888.25;5012546;28;20459;-80
2021/08/19 05:40:14;;;;;;;7.23;6.53;;;17.00;85.60;;;16.28;83.90;97886.78;5020058;28;20474;-80
2021/08/19 05:42:41;;;;;;;6.60;6.10;;;17.10;85.30;;;16.29;83.52;97883.81;5025657;28;20538;-80
2021/08/19 05:45:10;;;;;;;6.40;5.87;;;17.10;84.90;;;16.35;83.36;97883.88;5029285;28;20466;-80
2021/08/19 05:47:40;;;;;;;6.93;6.33;;;17.20;84.70;;;16.55;81.87;97885.97;5022604;28;20967;-80
2021/08/19 05:50:11;;;;;;;7.67;6.97;;;17.30;83.90;;;16.50;81.46;97872.31;5028373;28;20455;-80
2021/08/19 05:52:38;;;;;;;6.10;5.70;;;17.40;83.40;;;16.57;81.89;97895.56;5031526;28;21329;-80
2021/08/19 05:55:09;;;;;;;6.23;5.63;;;17.40;83.10;;;16.57;81.52;97900.19;5029037;28;20459;-80
2021/08/19 05:57:36;;;;;;;6.67;6.00;;;17.50;82.70;;;16.51;81.73;97901.22;5026584;28;20485;-80
2021/08/19 06:00:06;;;;;;;6.40;5.90;;;17.40;82.60;;;16.48;81.58;97908.00;5029825;28;20456;-80
2021/08/19 06:02:33;;;;;;;6.40;5.90;;;17.40;82.30;;;16.62;81.59;97902.97;5023293;28;20439;-80
2021/08/19 06:05:03;;;;;;;12.10;6.73;;;17.50;82.50;;;16.70;81.28;97910.69;5027523;28;20657;-82
2021/08/19 06:07:32;;;;;;;5.37;4.97;;;17.60;82.30;;;16.89;80.76;97912.22;5031269;28;20487;-80
2021/08/19 06:09:59;;;;;;;6.27;5.73;;;17.70;82.20;;;17.03;79.89;97904.44;5031545;28;20459;-80
2021/08/19 06:12:26;;;;;;;6.60;5.90;;;17.80;81.30;;;16.98;79.60;97908.75;5032864;28;20489;-80
2021/08/19 06:14:53;;;;;;;6.30;5.80;;;17.90;80.60;;;16.85;80.19;97907.28;5039606;28;20459;-80
2021/08/19 06:17:20;;;;;;;6.27;5.77;;;17.80;80.60;;;16.98;80.16;97916.94;5034953;28;20518;-80
2021/08/19 06:19:49;;;;;;;5.80;5.30;;;17.80;80.80;;;17.04;78.95;97897.88;5030705;28;20514;-81
2021/08/19 06:22:19;;;;;;;6.17;5.67;;;18.00;80.60;;;17.26;78.91;97911.44;5030725;28;20506;-80
2021/08/19 06:24:49;;;;;;;5.80;5.33;;;18.10;80.30;;;17.41;77.76;97910.72;5032863;28;20596;-80
2021/08/19 06:27:16;;;;;;;6.20;5.33;;;18.20;79.50;;;17.54;77.30;97912.19;5024114;28;20475;-80
2021/08/19 06:29:43;;;;;;;7.33;5.23;;;18.30;79.00;;;17.41;77.51;97919.72;5027076;28;20554;-80
2021/08/19 06:32:10;;;;;;;6.83;5.50;;;18.30;78.60;;;17.46;77.60;97902.56;5023949;28;20905;-80
2021/08/19 06:34:38;;;;;;;5.60;4.93;;;18.30;78.50;;;17.61;76.89;97906.47;5026052;28;20440;-82
2021/08/19 06:37:06;;;;;;;5.77;5.37;;;18.50;78.20;;;17.51;77.30;97916.25;5030256;28;20751;-83
2021/08/19 06:39:37;;;;;;;5.43;5.00;;;18.40;77.60;;;17.42;77.27;97904.19;5021401;28;20455;-83
2021/08/19 06:42:04;;;;;;;6.00;5.50;;;18.40;77.60;;;17.44;77.26;97917.56;5024971;28;20471;-83
2021/08/19 06:44:33;;;;;;;7.40;6.10;;;18.30;77.50;;;17.59;77.15;97919.59;5033033;28;20463;-82
2021/08/19 06:47:00;;;;;;;6.50;5.90;;;18.50;77.60;;;17.74;76.13;97916.94;5028504;28;20538;-84
2021/08/19 06:49:29;;;;;;;6.03;5.43;;;18.50;77.00;;;17.60;76.48;97904.84;5030931;28;20546;-83
2021/08/19 06:51:58;;;;;;;6.47;5.80;;;18.60;77.10;;;17.56;77.04;97910.84;5013274;28;20455;-83
2021/08/19 06:54:25;;;;;;;5.90;5.43;;;18.50;77.30;;;17.70;76.64;97913.09;5026122;28;20447;-84
2021/08/19 06:56:57;;;;;;;7.40;5.30;;;18.60;77.20;;;17.91;75.17;97913.19;5039299;28;20466;-84
2021/08/19 06:59:27;;;;;;;5.17;4.70;;;18.80;76.30;;;18.06;74.76;97910.56;5030465;28;20798;-82
2021/08/19 07:01:57;;;;;;;5.23;4.83;;;18.90;76.10;;;18.45;73.49;97920.25;5038482;28;20432;-82
2021/08/19 07:04:25;;;;;;;5.60;4.40;;;19.20;75.20;;;18.47;72.80;97906.31;5025388;28;20524;-82
2021/08/19 07:06:53;;;;;;;5.60;5.10;;;19.40;74.40;;;18.75;71.85;97917.88;5036011;28;20444;-84
2021/08/19 07:09:20;;;;;;;6.13;5.10;;;19.50;73.80;;;18.60;72.43;97919.50;5019887;28;20490;-84
2021/08/19 07:11:49;;;;;;;5.20;4.73;;;19.40;73.40;;;18.09;73.84;97920.16;5032770;28;20502;-85
2021/08/19 07:14:19;;;;;;;6.43;5.37;;;19.00;73.60;;;18.03;73.97;97930.22;5022308;28;20451;-83
2021/08/19 07:16:46;;;;;;;5.60;5.20;;;19.00;73.70;;;17.79;74.76;97908.75;5024693;28;20447;-84
2021/08/19 07:19:14;;;;;;;5.10;4.70;;;18.80;74.20;;;17.97;74.56;97929.34;5029050;28;21166;-81
2021/08/19 07:21:44;;;;;;;5.87;5.27;;;18.90;74.30;;;18.06;74.30;97932.44;5023240;28;21049;-83
2021/08/19 07:24:13;;;;;;;6.10;5.17;;;18.90;74.10;;;18.34;73.26;97924.03;5023230;28;20566;-84
2021/08/19 07:26:41;;;;;;;5.50;5.00;;;19.10;73.80;;;18.34;72.78;97930.34;5035864;28;20451;-83
2021/08/19 07:29:09;;;;;;;5.13;4.73;;;19.20;73.10;;;18.81;71.10;97922.25;5024463;28;20455;-84
2021/08/19 07:31:39;;;;;;;4.60;4.20;;;19.50;72.60;;;19.11;70.67;97923.38;5026072;28;20530;-83
2021/08/19 07:34:06;;;;;;;5.43;4.30;;;19.80;72.50;;;19.53;68.64;97921.44;5023506;28;20498;-82
2021/08/19 07:36:34;;;;;;;4.87;4.40;;;20.20;71.20;;;19.39;68.71;97926.66;5025612;28;20451;-83
2021/08/19 07:39:03;;;;;;;6.03;5.63;;;20.30;70.40;;;19.33;68.83;97911.31;5025177;28;20447;-82
2021/08/19 07:41:32;;;;;;;7.90;4.53;;;20.20;70.30;;;19.43;68.34;97922.28;5039090;28;20448;-82
2021/08/19 07:44:01;;;;;;;4.30;3.90;;;20.30;69.90;;;19.58;67.77;97924.19;5034144;28;20455;-82
2021/08/19 07:46:29;;;;;;;4.30;4.00;;;20.40;69.30;;;19.16;69.66;97917.91;5032258;28;21173;-83
2021/08/19 07:48:59;;;;;;;4.67;4.27;;;20.20;69.80;;;19.13;69.48;97920.38;5024584;28;20537;-83
2021/08/19 07:51:28;;;;;;;5.20;4.80;;;20.10;69.70;;;19.10;69.22;97919.00;5018826;28;20451;-85
2021/08/19 07:53:58;;;;;;;4.57;4.10;;;20.00;69.80;;;19.31;68.49;97916.25;5022220;28;20447;-82
2021/08/19 07:56:31;;;;;;;4.60;4.30;;;20.10;69.40;;;19.46;68.16;97920.91;5020106;28;20725;-83
2021/08/19 07:58:59;;;;;;;4.23;3.93;;;20.30;69.10;;;19.59;67.38;97922.25;5014818;28;20455;-84
2021/08/19 08:01:26;;;;;;;5.10;4.00;;;20.40;68.80;;;19.47;67.60;97915.13;5025792;28;20451;-82
2021/08/19 08:03:57;;;;;;;4.10;3.80;;;20.40;68.50;;;19.04;68.74;97915.44;5036151;28;20449;-83
2021/08/19 08:06:31;;;;;;;4.65;4.03;;;20.10;68.60;;;18.89;69.92;97929.94;5019392;28;21319;-82
2021/08/19 08:09:05;;;;;;;4.50;4.10;;;19.80;69.10;;;18.80;70.35;97926.91;5029867;28;20307;-83
2021/08/19 08:11:32;;;;;;;4.97;3.97;;;19.70;69.50;;;18.98;69.98;97922.81;5038296;28;20452;-83
2021/08/19 08:14:04;;;;;;;4.80;3.60;;;19.70;69.70;;;18.95;68.81;97933.47;5014843;28;20454;-83
2021/08/19 08:16:31;;;;;;;3.60;3.30;;;19.80;68.50;;;19.15;68.30;97927.22;5026462;28;20454;-78
2021/08/19 08:19:01;;;;;;;3.80;3.50;;;19.90;68.40;;;19.44;67.22;97934.88;5022802;28;20486;-79
2021/08/19 08:21:31;;;;;;;3.60;3.30;;;20.20;68.20;;;19.28;67.33;97941.47;5017722;28;20460;-79
2021/08/19 08:24:00;;;;;;;3.63;3.33;;;20.30;67.60;;;18.86;70.82;97948.81;5028777;28;20443;-79
2021/08/19 08:26:28;;;;;;;4.93;4.57;;;20.00;69.10;;;18.47;73.50;97948.16;5049394;28;20463;-81
2021/08/19 08:28:57;;;;;;;3.93;3.63;;;19.60;70.60;;;18.30;74.60;97950.28;5040669;28;20435;-80
2021/08/19 08:31:27;;;;;;;3.10;2.80;;;19.40;71.60;;;18.18;75.54;97953.25;5038356;28;20431;-83
2021/08/19 08:33:54;;;;;;;3.67;3.40;;;19.20;72.30;;;18.28;76.28;97945.09;5053680;28;20470;-83
2021/08/19 08:36:22;;;;;;;4.23;3.10;;;19.20;73.30;;;18.77;72.71;97943.84;5048304;28;20462;-81
2021/08/19 08:38:51;;;;;;;2.90;2.67;;;19.40;71.90;;;19.33;71.19;97944.19;5031652;28;20810;-84
2021/08/19 08:41:20;;;;;;;3.23;3.00;;;20.00;71.80;;;19.90;68.54;97958.63;5034363;28;20460;-84
2021/08/19 08:43:51;;;;;;;3.50;3.30;;;20.40;70.20;;;20.33;66.11;97957.44;5028144;28;20478;-82
2021/08/19 08:46:18;;;;;;;3.03;2.73;;;21.00;69.00;;;20.57;64.69;97946.59;5038372;28;20550;-87
2021/08/19 08:48:48;;;;;;;2.90;2.70;;;21.30;67.40;;;20.34;64.63;97948.09;5036896;28;20443;-84
2021/08/19 08:51:15;;;;;;;2.33;2.10;;;21.20;66.70;;;20.50;63.75;97949.66;5028549;28;20490;-82
2021/08/19 08:53:46;;;;;;;3.03;2.83;;;21.30;66.40;;;20.54;63.40;97944.41;5043761;28;20478;-83
2021/08/19 08:56:22;;;;;;;3.83;2.90;;;21.40;65.80;;;20.55;63.50;97945.25;5024427;28;20451;-85
2021/08/19 08:58:49;;;;;;;7.43;2.73;;;21.40;65.70;;;20.03;65.26;97935.31;5024403;28;20547;-85
2021/08/19 09:01:16;;;;;;;3.30;2.57;;;21.10;65.90;;;20.02;65.73;97944.66;5035363;28;20843;-85
2021/08/19 09:03:45;;;;;;;4.17;3.20;;;21.00;66.40;;;20.58;64.70;97948.25;5010004;28;20487;-84
2021/08/19 09:06:13;;;;;;;3.73;3.43;;;21.30;66.70;;;20.83;63.75;97943.72;5018830;28;20479;-85
2021/08/19 09:09:02;;;;;;;4.03;3.67;;;21.50;66.10;;;21.23;62.70;97939.03;5003098;28;20568;-86
2021/08/19 09:11:43;;;;;;;3.97;3.40;;;21.90;65.70;;;21.12;62.30;97942.16;5023169;28;20447;-85
2021/08/19 09:14:20;;;;;;;3.83;2.77;;;21.90;65.00;;;21.35;61.36;97940.59;5032786;28;20545;-85
2021/08/19 09:16:48;;;;;;;3.10;2.90;;;22.10;64.40;;;21.54;61.10;97940.69;5029776;28;21196;-84
2021/08/19 09:19:23;;;;;;;3.17;2.97;;;22.30;64.40;;;21.61;60.75;97932.09;5032508;28;20450;-84
2021/08/19 09:21:52;;;;;;;3.00;2.80;;;22.30;64.00;;;21.92;59.05;97938.13;5036475;28;20511;-84
2021/08/19 09:24:23;;;;;;;2.90;2.30;;;22.60;63.30;;;22.26;58.47;97946.53;5030111;28;20535;-85
2021/08/19 09:26:55;;;;;;;3.77;2.50;;;22.90;62.90;;;22.68;56.63;97936.66;5024169;28;20534;-86
2021/08/19 09:29:26;;;;;;;3.70;2.70;;;23.30;62.00;;;22.70;55.79;97933.63;5022402;28;20471;-85
2021/08/19 09:32:09;;;;;;;2.50;2.30;;;23.50;61.00;;;23.08;54.50;97919.00;5023346;28;20462;-85
2021/08/19 09:34:49;;;;;;;2.00;1.90;;;23.80;60.50;;;23.30;53.77;97899.09;5024586;28;20542;-85
2021/08/19 09:37:21;;;;;;;2.20;2.07;;;24.10;60.10;;;23.04;54.24;97927.03;4995368;28;20451;-84
2021/08/19 09:39:56;;;;;;;2.10;2.00;;;23.90;59.60;;;22.61;54.93;97931.50;5023096;28;20456;-85
2021/08/19 09:42:38;;;;;;;2.50;2.13;;;23.60;59.50;;;22.91;53.87;97918.41;5035625;28;20494;-82
2021/08/19 09:45:27;;;;;;;2.00;1.90;;;23.60;59.20;;;22.54;54.93;97922.81;5029302;28;20514;-84
2021/08/19 09:48:08;;;;;;;2.33;2.13;;;23.40;59.60;;;22.90;55.33;97911.25;5023021;28;20459;-84
2021/08/19 09:50:41;;;;;;;2.80;2.60;;;23.70;60.10;;;23.14;54.16;97910.34;5021177;28;20440;-85
2021/08/19 09:56:03;;;;;;;2.30;2.10;;;24.00;58.70;;;22.72;54.56;97920.38;5017692;28;20458;-85
2021/08/19 09:58:36;;;;;;;2.10;1.90;;;23.80;59.00;;;22.00;56.52;97922.09;5028977;28;20477;-85
2021/08/19 10:01:08;;;;;;;3.30;2.30;;;23.20;59.20;;;21.10;59.39;97928.69;5022065;28;20466;-85
2021/08/19 10:03:37;;;;;;;3.00;2.80;;;22.30;59.90;;;20.58;61.46;97920.81;4999129;28;20498;-78
2021/08/19 10:06:05;;;;;;;3.80;2.13;;;21.70;60.90;;;20.30;62.34;97912.19;5009003;28;21035;-77
2021/08/19 10:08:34;;;;;;;2.73;1.97;;;21.40;61.90;;;20.34;64.06;97924.22;5014520;28;20451;-76
2021/08/19 10:11:06;;;;;;;2.33;2.13;;;21.20;62.80;;;20.12;64.09;97932.00;5026055;28;20455;-84
2021/08/19 10:13:42;;;;;;;11.70;2.40;;;21.00;62.70;;;19.78;64.78;97923.28;5021760;28;20475;-81
2021/08/19 10:16:11;;;;;;;2.33;1.60;;;20.80;62.90;;;19.89;63.86;97934.22;5017220;28;20454;-81
2021/08/19 10:18:41;;;;;;;6.50;2.10;;;20.80;62.90;;;19.87;64.09;97941.91;5017094;28;20550;-77
2021/08/19 10:21:12;;;;;;;3.00;2.60;;;20.80;62.70;;;19.62;65.72;97935.38;5024230;28;20482;-79
2021/08/19 10:23:41;;;;;;;4.70;4.40;;;20.60;63.60;;;19.58;66.82;97923.34;5009985;28;20486;-80
2021/08/19 10:26:11;;;;;;;2.27;2.07;;;20.50;64.50;;;19.94;65.99;97923.28;5022652;28;20550;-79
2021/08/19 10:28:53;;;;;;;2.13;1.83;;;20.70;64.70;;;20.65;63.36;97932.28;5014116;28;20595;-79
2021/08/19 10:31:48;;;;;;;2.47;2.27;;;21.10;63.80;;;21.46;60.94;97930.31;5005610;28;20447;-79